sensor_id;sensor_type;location;lat;lon;timestamp;temperature;humidity
31443;SHT31;18065;55.876;9.830;2023-11-21T00:00:13;22.22;51.16
31443;SHT31;18065;55.876;9.830;2023-11-21T00:02:44;22.21;51.16
31443;SHT31;18065;55.876;9.830;2023-11-21T00:05:14;22.21;51.16
31443;SHT31;18065;55.876;9.830;2023-11-21T00:07:43;22.22;51.14
31443;SHT31;18065;55.876;9.830;2023-11-21T00:10:12;22.20;51.19
31443;SHT31;18065;55.876;9.830;2023-11-21T00:12:45;22.21;51.17
31443;SHT31;18065;55.876;9.830;2023-11-21T00:15:14;22.22;51.20
31443;SHT31;18065;55.876;9.830;2023-11-21T00:17:42;22.20;51.17
31443;SHT31;18065;55.876;9.830;2023-11-21T00:20:12;22.21;51.18
31443;SHT31;18065;55.876;9.830;2023-11-21T00:22:41;22.21;51.20
31443;SHT31;18065;55.876;9.830;2023-11-21T00:25:09;22.21;51.21
31443;SHT31;18065;55.876;9.830;2023-11-21T00:27:41;22.18;51.25
31443;SHT31;18065;55.876;9.830;2023-11-21T00:30:14;22.18;51.21
31443;SHT31;18065;55.876;9.830;2023-11-21T00:32:42;22.20;51.22
31443;SHT31;18065;55.876;9.830;2023-11-21T00:35:11;22.18;51.24
31443;SHT31;18065;55.876;9.830;2023-11-21T00:37:40;22.18;51.23
31443;SHT31;18065;55.876;9.830;2023-11-21T00:40:10;22.18;51.22
31443;SHT31;18065;55.876;9.830;2023-11-21T00:42:41;22.17;51.26
31443;SHT31;18065;55.876;9.830;2023-11-21T00:45:12;22.17;51.26
31443;SHT31;18065;55.876;9.830;2023-11-21T00:47:41;22.17;51.28
31443;SHT31;18065;55.876;9.830;2023-11-21T00:50:10;22.18;51.28
31443;SHT31;18065;55.876;9.830;2023-11-21T00:52:39;22.17;51.28
31443;SHT31;18065;55.876;9.830;2023-11-21T00:55:08;22.16;51.29
31443;SHT31;18065;55.876;9.830;2023-11-21T00:57:37;22.17;51.29
31443;SHT31;18065;55.876;9.830;2023-11-21T01:00:07;22.17;51.30
31443;SHT31;18065;55.876;9.830;2023-11-21T01:02:42;22.14;51.28
31443;SHT31;18065;55.876;9.830;2023-11-21T01:05:12;22.14;51.32
31443;SHT31;18065;55.876;9.830;2023-11-21T01:07:41;22.16;51.30
31443;SHT31;18065;55.876;9.830;2023-11-21T01:10:09;22.14;51.34
31443;SHT31;18065;55.876;9.830;2023-11-21T01:12:38;22.14;51.33
31443;SHT31;18065;55.876;9.830;2023-11-21T01:15:07;22.13;51.36
31443;SHT31;18065;55.876;9.830;2023-11-21T01:17:40;22.14;51.34
31443;SHT31;18065;55.876;9.830;2023-11-21T01:20:10;22.14;51.40
31443;SHT31;18065;55.876;9.830;2023-11-21T01:22:39;22.11;51.40
31443;SHT31;18065;55.876;9.830;2023-11-21T01:25:08;22.14;51.38
31443;SHT31;18065;55.876;9.830;2023-11-21T01:27:37;22.10;51.42
31443;SHT31;18065;55.876;9.830;2023-11-21T01:30:07;22.10;51.39
31443;SHT31;18065;55.876;9.830;2023-11-21T01:32:36;22.13;51.39
31443;SHT31;18065;55.876;9.830;2023-11-21T01:35:08;22.11;51.37
31443;SHT31;18065;55.876;9.830;2023-11-21T01:37:37;22.11;51.44
31443;SHT31;18065;55.876;9.830;2023-11-21T01:40:07;22.11;51.44
31443;SHT31;18065;55.876;9.830;2023-11-21T01:42:39;22.11;51.45
31443;SHT31;18065;55.876;9.830;2023-11-21T01:45:09;22.14;51.46
31443;SHT31;18065;55.876;9.830;2023-11-21T01:47:38;22.11;51.48
31443;SHT31;18065;55.876;9.830;2023-11-21T01:50:14;22.11;51.46
31443;SHT31;18065;55.876;9.830;2023-11-21T01:52:46;22.13;51.44
31443;SHT31;18065;55.876;9.830;2023-11-21T01:55:16;22.10;51.48
31443;SHT31;18065;55.876;9.830;2023-11-21T01:57:46;22.10;51.46
31443;SHT31;18065;55.876;9.830;2023-11-21T02:00:16;22.08;51.50
31443;SHT31;18065;55.876;9.830;2023-11-21T02:02:45;22.07;51.52
31443;SHT31;18065;55.876;9.830;2023-11-21T02:05:18;22.08;51.48
31443;SHT31;18065;55.876;9.830;2023-11-21T02:07:47;22.06;51.50
31443;SHT31;18065;55.876;9.830;2023-11-21T02:10:18;22.07;51.55
31443;SHT31;18065;55.876;9.830;2023-11-21T02:12:48;22.10;51.53
31443;SHT31;18065;55.876;9.830;2023-11-21T02:15:18;22.07;51.56
31443;SHT31;18065;55.876;9.830;2023-11-21T02:17:51;22.00;51.66
31443;SHT31;18065;55.876;9.830;2023-11-21T02:20:23;22.04;51.57
31443;SHT31;18065;55.876;9.830;2023-11-21T02:22:57;22.03;51.60
31443;SHT31;18065;55.876;9.830;2023-11-21T02:25:28;22.06;51.58
31443;SHT31;18065;55.876;9.830;2023-11-21T02:27:58;22.06;51.58
31443;SHT31;18065;55.876;9.830;2023-11-21T02:30:27;22.04;51.60
31443;SHT31;18065;55.876;9.830;2023-11-21T02:32:57;22.04;51.64
31443;SHT31;18065;55.876;9.830;2023-11-21T02:35:26;22.03;51.61
31443;SHT31;18065;55.876;9.830;2023-11-21T02:37:59;22.04;51.60
31443;SHT31;18065;55.876;9.830;2023-11-21T02:40:28;22.03;51.62
31443;SHT31;18065;55.876;9.830;2023-11-21T02:42:56;22.04;51.65
31443;SHT31;18065;55.876;9.830;2023-11-21T02:45:25;22.03;51.60
31443;SHT31;18065;55.876;9.830;2023-11-21T02:47:54;22.01;51.63
31443;SHT31;18065;55.876;9.830;2023-11-21T02:50:23;22.01;51.61
31443;SHT31;18065;55.876;9.830;2023-11-21T02:52:52;22.03;51.64
31443;SHT31;18065;55.876;9.830;2023-11-21T02:55:25;22.00;51.61
31443;SHT31;18065;55.876;9.830;2023-11-21T02:57:54;22.03;51.66
31443;SHT31;18065;55.876;9.830;2023-11-21T03:00:24;22.01;51.66
31443;SHT31;18065;55.876;9.830;2023-11-21T03:02:55;22.03;51.66
31443;SHT31;18065;55.876;9.830;2023-11-21T03:05:24;22.03;51.64
31443;SHT31;18065;55.876;9.830;2023-11-21T03:07:54;22.03;51.69
31443;SHT31;18065;55.876;9.830;2023-11-21T03:10:26;22.01;51.72
31443;SHT31;18065;55.876;9.830;2023-11-21T03:12:55;22.03;51.67
31443;SHT31;18065;55.876;9.830;2023-11-21T03:15:23;22.01;51.67
31443;SHT31;18065;55.876;9.830;2023-11-21T03:17:52;22.00;51.74
31443;SHT31;18065;55.876;9.830;2023-11-21T03:20:20;22.00;51.76
31443;SHT31;18065;55.876;9.830;2023-11-21T03:22:49;21.98;51.77
31443;SHT31;18065;55.876;9.830;2023-11-21T03:25:18;21.98;51.74
31443;SHT31;18065;55.876;9.830;2023-11-21T03:27:52;21.97;51.76
31443;SHT31;18065;55.876;9.830;2023-11-21T03:30:20;21.96;51.74
31443;SHT31;18065;55.876;9.830;2023-11-21T03:32:49;21.97;51.75
31443;SHT31;18065;55.876;9.830;2023-11-21T03:35:18;21.98;51.74
31443;SHT31;18065;55.876;9.830;2023-11-21T03:37:47;21.96;51.79
31443;SHT31;18065;55.876;9.830;2023-11-21T03:40:15;21.97;51.72
31443;SHT31;18065;55.876;9.830;2023-11-21T03:42:44;21.97;51.74
31443;SHT31;18065;55.876;9.830;2023-11-21T03:45:15;21.96;51.76
31443;SHT31;18065;55.876;9.830;2023-11-21T03:47:44;21.96;51.80
31443;SHT31;18065;55.876;9.830;2023-11-21T03:50:13;21.96;51.77
31443;SHT31;18065;55.876;9.830;2023-11-21T03:52:42;21.97;51.82
31443;SHT31;18065;55.876;9.830;2023-11-21T03:55:10;21.97;51.78
31443;SHT31;18065;55.876;9.830;2023-11-21T03:57:40;21.96;51.82
31443;SHT31;18065;55.876;9.830;2023-11-21T04:00:10;21.96;51.82
31443;SHT31;18065;55.876;9.830;2023-11-21T04:02:42;21.94;51.81
31443;SHT31;18065;55.876;9.830;2023-11-21T04:05:10;21.94;51.87
31443;SHT31;18065;55.876;9.830;2023-11-21T04:07:39;21.93;51.87
31443;SHT31;18065;55.876;9.830;2023-11-21T04:10:08;21.93;51.85
31443;SHT31;18065;55.876;9.830;2023-11-21T04:12:38;21.94;51.87
31443;SHT31;18065;55.876;9.830;2023-11-21T04:15:08;21.96;51.86
31443;SHT31;18065;55.876;9.830;2023-11-21T04:17:41;21.92;51.87
31443;SHT31;18065;55.876;9.830;2023-11-21T04:20:11;21.92;51.90
31443;SHT31;18065;55.876;9.830;2023-11-21T04:22:41;21.92;51.92
31443;SHT31;18065;55.876;9.830;2023-11-21T04:25:10;21.92;51.92
31443;SHT31;18065;55.876;9.830;2023-11-21T04:27:40;21.92;51.92
31443;SHT31;18065;55.876;9.830;2023-11-21T04:30:10;21.90;51.95
31443;SHT31;18065;55.876;9.830;2023-11-21T04:32:42;21.89;51.93
31443;SHT31;18065;55.876;9.830;2023-11-21T04:35:11;21.89;51.96
31443;SHT31;18065;55.876;9.830;2023-11-21T04:37:40;21.87;51.92
31443;SHT31;18065;55.876;9.830;2023-11-21T04:40:12;21.90;51.97
31443;SHT31;18065;55.876;9.830;2023-11-21T04:42:40;21.89;51.93
31443;SHT31;18065;55.876;9.830;2023-11-21T04:45:09;21.89;51.95
31443;SHT31;18065;55.876;9.830;2023-11-21T04:47:38;21.87;52.00
31443;SHT31;18065;55.876;9.830;2023-11-21T04:50:10;21.87;51.96
31443;SHT31;18065;55.876;9.830;2023-11-21T04:52:38;21.87;51.95
31443;SHT31;18065;55.876;9.830;2023-11-21T04:55:08;21.86;52.00
31443;SHT31;18065;55.876;9.830;2023-11-21T04:57:37;21.86;51.95
31443;SHT31;18065;55.876;9.830;2023-11-21T05:00:08;21.87;51.98
31443;SHT31;18065;55.876;9.830;2023-11-21T05:02:38;21.84;51.97
31443;SHT31;18065;55.876;9.830;2023-11-21T05:05:10;21.86;51.98
31443;SHT31;18065;55.876;9.830;2023-11-21T05:07:40;21.84;52.01
31443;SHT31;18065;55.876;9.830;2023-11-21T05:10:09;21.84;51.99
31443;SHT31;18065;55.876;9.830;2023-11-21T05:12:40;21.83;52.02
31443;SHT31;18065;55.876;9.830;2023-11-21T05:15:12;21.83;52.01
31443;SHT31;18065;55.876;9.830;2023-11-21T05:17:43;21.81;52.04
31443;SHT31;18065;55.876;9.830;2023-11-21T05:20:18;21.84;52.00
31443;SHT31;18065;55.876;9.830;2023-11-21T05:22:47;21.81;52.03
31443;SHT31;18065;55.876;9.830;2023-11-21T05:25:16;21.83;52.06
31443;SHT31;18065;55.876;9.830;2023-11-21T05:27:46;21.81;52.09
31443;SHT31;18065;55.876;9.830;2023-11-21T05:30:15;21.81;52.08
31443;SHT31;18065;55.876;9.830;2023-11-21T05:32:44;21.81;52.10
31443;SHT31;18065;55.876;9.830;2023-11-21T05:35:13;21.80;52.06
31443;SHT31;18065;55.876;9.830;2023-11-21T05:37:44;21.80;52.11
31443;SHT31;18065;55.876;9.830;2023-11-21T05:40:14;21.79;52.13
31443;SHT31;18065;55.876;9.830;2023-11-21T05:42:44;21.79;52.11
31443;SHT31;18065;55.876;9.830;2023-11-21T05:45:13;21.77;52.11
31443;SHT31;18065;55.876;9.830;2023-11-21T05:47:43;21.79;52.09
31443;SHT31;18065;55.876;9.830;2023-11-21T05:50:14;21.79;52.12
31443;SHT31;18065;55.876;9.830;2023-11-21T05:52:47;21.80;52.12
31443;SHT31;18065;55.876;9.830;2023-11-21T05:55:16;21.80;52.45
31443;SHT31;18065;55.876;9.830;2023-11-21T05:57:46;21.79;52.53
31443;SHT31;18065;55.876;9.830;2023-11-21T06:00:15;21.80;52.54
31443;SHT31;18065;55.876;9.830;2023-11-21T06:02:46;23.68;48.15
31443;SHT31;18065;55.876;9.830;2023-11-21T06:05:17;24.74;45.48
31443;SHT31;18065;55.876;9.830;2023-11-21T06:07:51;24.84;45.16
31443;SHT31;18065;55.876;9.830;2023-11-21T06:10:21;24.71;45.41
31443;SHT31;18065;55.876;9.830;2023-11-21T06:12:49;24.53;45.76
31443;SHT31;18065;55.876;9.830;2023-11-21T06:15:18;24.29;46.23
31443;SHT31;18065;55.876;9.830;2023-11-21T06:17:48;24.13;46.62
31443;SHT31;18065;55.876;9.830;2023-11-21T06:20:18;23.96;46.99
31443;SHT31;18065;55.876;9.830;2023-11-21T06:22:51;23.79;47.34
31443;SHT31;18065;55.876;9.830;2023-11-21T06:25:20;23.62;47.72
31443;SHT31;18065;55.876;9.830;2023-11-21T06:27:50;23.50;47.98
31443;SHT31;18065;55.876;9.830;2023-11-21T06:30:20;23.37;48.30
31443;SHT31;18065;55.876;9.830;2023-11-21T06:32:48;23.27;48.56
31443;SHT31;18065;55.876;9.830;2023-11-21T06:35:18;23.17;48.78
31443;SHT31;18065;55.876;9.830;2023-11-21T06:37:46;23.07;49.00
31443;SHT31;18065;55.876;9.830;2023-11-21T06:40:19;22.96;49.24
31443;SHT31;18065;55.876;9.830;2023-11-21T06:42:48;22.87;49.43
31443;SHT31;18065;55.876;9.830;2023-11-21T06:45:17;22.77;49.60
31443;SHT31;18065;55.876;9.830;2023-11-21T06:47:47;22.75;49.76
31443;SHT31;18065;55.876;9.830;2023-11-21T06:50:16;22.64;49.94
31443;SHT31;18065;55.876;9.830;2023-11-21T06:52:46;22.59;50.10
31443;SHT31;18065;55.876;9.830;2023-11-21T06:55:15;22.51;50.18
31443;SHT31;18065;55.876;9.830;2023-11-21T06:57:47;22.47;50.30
31443;SHT31;18065;55.876;9.830;2023-11-21T07:00:18;22.39;50.46
31443;SHT31;18065;55.876;9.830;2023-11-21T07:02:46;22.35;50.59
31443;SHT31;18065;55.876;9.830;2023-11-21T07:05:15;22.32;50.70
31443;SHT31;18065;55.876;9.830;2023-11-21T07:07:46;22.27;50.81
31443;SHT31;18065;55.876;9.830;2023-11-21T07:10:15;22.24;50.87
31443;SHT31;18065;55.876;9.830;2023-11-21T07:12:46;22.21;50.92
31443;SHT31;18065;55.876;9.830;2023-11-21T07:15:16;22.17;51.04
31443;SHT31;18065;55.876;9.830;2023-11-21T07:17:45;22.16;51.08
31443;SHT31;18065;55.876;9.830;2023-11-21T07:20:14;22.13;51.13
31443;SHT31;18065;55.876;9.830;2023-11-21T07:22:43;22.07;51.20
31443;SHT31;18065;55.876;9.830;2023-11-21T07:25:11;22.08;51.25
31443;SHT31;18065;55.876;9.830;2023-11-21T07:27:40;22.04;51.31
31443;SHT31;18065;55.876;9.830;2023-11-21T07:30:13;22.04;51.30
31443;SHT31;18065;55.876;9.830;2023-11-21T07:32:42;22.01;51.41
31443;SHT31;18065;55.876;9.830;2023-11-21T07:35:13;21.98;51.45
31443;SHT31;18065;55.876;9.830;2023-11-21T07:37:42;21.97;51.51
31443;SHT31;18065;55.876;9.830;2023-11-21T07:40:13;21.96;51.56
31443;SHT31;18065;55.876;9.830;2023-11-21T07:42:42;21.96;51.53
31443;SHT31;18065;55.876;9.830;2023-11-21T07:45:13;21.90;51.58
31443;SHT31;18065;55.876;9.830;2023-11-21T07:47:42;21.90;51.62
31443;SHT31;18065;55.876;9.830;2023-11-21T07:50:11;21.90;51.59
31443;SHT31;18065;55.876;9.830;2023-11-21T07:52:39;21.89;51.69
31443;SHT31;18065;55.876;9.830;2023-11-21T07:55:08;21.86;51.73
31443;SHT31;18065;55.876;9.830;2023-11-21T07:57:37;21.84;51.70
31443;SHT31;18065;55.876;9.830;2023-11-21T08:00:07;21.84;51.74
31443;SHT31;18065;55.876;9.830;2023-11-21T08:02:40;21.83;51.76
31443;SHT31;18065;55.876;9.830;2023-11-21T08:05:11;21.86;51.80
31443;SHT31;18065;55.876;9.830;2023-11-21T08:07:41;21.81;51.79
31443;SHT31;18065;55.876;9.830;2023-11-21T08:10:10;21.80;51.82
31443;SHT31;18065;55.876;9.830;2023-11-21T08:12:39;21.79;51.85
31443;SHT31;18065;55.876;9.830;2023-11-21T08:15:09;21.79;51.87
31443;SHT31;18065;55.876;9.830;2023-11-21T08:17:40;21.77;51.88
31443;SHT31;18065;55.876;9.830;2023-11-21T08:20:10;21.77;51.90
31443;SHT31;18065;55.876;9.830;2023-11-21T08:22:41;21.74;51.90
31443;SHT31;18065;55.876;9.830;2023-11-21T08:25:10;21.74;51.93
31443;SHT31;18065;55.876;9.830;2023-11-21T08:27:39;21.76;51.94
31443;SHT31;18065;55.876;9.830;2023-11-21T08:30:09;21.74;51.96
31443;SHT31;18065;55.876;9.830;2023-11-21T08:32:40;21.74;51.93
31443;SHT31;18065;55.876;9.830;2023-11-21T08:35:10;21.70;51.93
31443;SHT31;18065;55.876;9.830;2023-11-21T08:37:39;21.71;51.95
31443;SHT31;18065;55.876;9.830;2023-11-21T08:40:09;21.73;51.95
31443;SHT31;18065;55.876;9.830;2023-11-21T08:42:42;21.69;52.01
31443;SHT31;18065;55.876;9.830;2023-11-21T08:45:11;21.70;51.99
31443;SHT31;18065;55.876;9.830;2023-11-21T08:47:42;21.70;52.00
31443;SHT31;18065;55.876;9.830;2023-11-21T08:50:12;21.67;52.01
31443;SHT31;18065;55.876;9.830;2023-11-21T08:52:41;21.67;52.02
31443;SHT31;18065;55.876;9.830;2023-11-21T08:55:11;21.65;52.04
31443;SHT31;18065;55.876;9.830;2023-11-21T08:57:41;21.67;52.03
31443;SHT31;18065;55.876;9.830;2023-11-21T09:00:12;21.66;52.07
31443;SHT31;18065;55.876;9.830;2023-11-21T09:02:45;21.67;52.00
31443;SHT31;18065;55.876;9.830;2023-11-21T09:05:14;21.66;52.06
31443;SHT31;18065;55.876;9.830;2023-11-21T09:07:44;21.66;52.06
31443;SHT31;18065;55.876;9.830;2023-11-21T09:10:14;21.62;52.04
31443;SHT31;18065;55.876;9.830;2023-11-21T09:12:43;21.65;52.05
31443;SHT31;18065;55.876;9.830;2023-11-21T09:15:12;21.65;52.09
31443;SHT31;18065;55.876;9.830;2023-11-21T09:17:40;21.62;52.05
31443;SHT31;18065;55.876;9.830;2023-11-21T09:20:13;21.62;52.05
31443;SHT31;18065;55.876;9.830;2023-11-21T09:22:41;21.62;52.09
31443;SHT31;18065;55.876;9.830;2023-11-21T09:25:10;21.63;52.11
31443;SHT31;18065;55.876;9.830;2023-11-21T09:27:39;21.60;52.10
31443;SHT31;18065;55.876;9.830;2023-11-21T09:30:08;21.62;52.09
31443;SHT31;18065;55.876;9.830;2023-11-21T09:32:40;21.60;52.08
31443;SHT31;18065;55.876;9.830;2023-11-21T09:35:13;21.60;52.12
31443;SHT31;18065;55.876;9.830;2023-11-21T09:37:43;21.60;52.12
31443;SHT31;18065;55.876;9.830;2023-11-21T09:40:12;21.59;52.13
31443;SHT31;18065;55.876;9.830;2023-11-21T09:42:48;21.59;52.13
31443;SHT31;18065;55.876;9.830;2023-11-21T09:45:23;21.56;52.13
31443;SHT31;18065;55.876;9.830;2023-11-21T09:47:54;21.59;52.14
31443;SHT31;18065;55.876;9.830;2023-11-21T09:50:26;21.59;52.12
31443;SHT31;18065;55.876;9.830;2023-11-21T09:52:57;21.60;52.13
31443;SHT31;18065;55.876;9.830;2023-11-21T09:55:27;21.56;52.12
31443;SHT31;18065;55.876;9.830;2023-11-21T09:58:02;21.56;52.09
31443;SHT31;18065;55.876;9.830;2023-11-21T10:00:33;21.56;52.11
31443;SHT31;18065;55.876;9.830;2023-11-21T10:03:02;21.59;52.08
31443;SHT31;18065;55.876;9.830;2023-11-21T10:05:33;21.56;52.11
31443;SHT31;18065;55.876;9.830;2023-11-21T10:08:04;21.56;52.11
31443;SHT31;18065;55.876;9.830;2023-11-21T10:10:35;21.56;52.15
31443;SHT31;18065;55.876;9.830;2023-11-21T10:13:09;21.55;52.07
31443;SHT31;18065;55.876;9.830;2023-11-21T10:15:42;21.58;52.07
31443;SHT31;18065;55.876;9.830;2023-11-21T10:18:14;21.58;52.11
31443;SHT31;18065;55.876;9.830;2023-11-21T10:20:46;21.56;52.11
31443;SHT31;18065;55.876;9.830;2023-11-21T10:23:18;21.58;52.19
31443;SHT31;18065;55.876;9.830;2023-11-21T10:25:48;21.55;52.14
31443;SHT31;18065;55.876;9.830;2023-11-21T10:28:17;21.55;52.14
31443;SHT31;18065;55.876;9.830;2023-11-21T10:30:46;21.55;52.12
31443;SHT31;18065;55.876;9.830;2023-11-21T10:33:14;21.56;52.13
31443;SHT31;18065;55.876;9.830;2023-11-21T10:35:48;21.55;52.11
31443;SHT31;18065;55.876;9.830;2023-11-21T10:38:19;21.50;52.12
31443;SHT31;18065;55.876;9.830;2023-11-21T10:40:50;21.52;52.13
31443;SHT31;18065;55.876;9.830;2023-11-21T10:43:24;21.53;52.12
31443;SHT31;18065;55.876;9.830;2023-11-21T10:45:58;21.50;52.12
31443;SHT31;18065;55.876;9.830;2023-11-21T10:48:28;21.52;52.12
31443;SHT31;18065;55.876;9.830;2023-11-21T10:50:59;21.53;52.11
31443;SHT31;18065;55.876;9.830;2023-11-21T10:53:28;21.52;52.13
31443;SHT31;18065;55.876;9.830;2023-11-21T10:56:02;21.52;52.08
31443;SHT31;18065;55.876;9.830;2023-11-21T10:58:35;21.53;52.13
31443;SHT31;18065;55.876;9.830;2023-11-21T11:01:07;21.49;52.15
31443;SHT31;18065;55.876;9.830;2023-11-21T11:03:37;21.53;52.16
31443;SHT31;18065;55.876;9.830;2023-11-21T11:06:09;21.50;52.14
31443;SHT31;18065;55.876;9.830;2023-11-21T11:08:40;21.50;52.15
31443;SHT31;18065;55.876;9.830;2023-11-21T11:11:09;21.52;52.11
31443;SHT31;18065;55.876;9.830;2023-11-21T11:13:43;21.49;52.13
31443;SHT31;18065;55.876;9.830;2023-11-21T11:16:12;21.50;52.16
31443;SHT31;18065;55.876;9.830;2023-11-21T11:18:42;21.52;52.17
31443;SHT31;18065;55.876;9.830;2023-11-21T11:21:25;21.49;52.12
31443;SHT31;18065;55.876;9.830;2023-11-21T11:24:13;21.49;52.14
31443;SHT31;18065;55.876;9.830;2023-11-21T11:26:48;21.50;52.16
31443;SHT31;18065;55.876;9.830;2023-11-21T11:29:28;21.49;52.16
31443;SHT31;18065;55.876;9.830;2023-11-21T11:32:08;21.49;52.14
31443;SHT31;18065;55.876;9.830;2023-11-21T11:34:44;21.46;52.15
31443;SHT31;18065;55.876;9.830;2023-11-21T11:37:18;21.48;52.12
31443;SHT31;18065;55.876;9.830;2023-11-21T11:39:49;21.49;52.18
31443;SHT31;18065;55.876;9.830;2023-11-21T11:42:21;21.46;52.19
31443;SHT31;18065;55.876;9.830;2023-11-21T11:44:51;21.48;52.22
31443;SHT31;18065;55.876;9.830;2023-11-21T11:47:23;21.46;52.20
31443;SHT31;18065;55.876;9.830;2023-11-21T11:50:11;21.45;52.18
31443;SHT31;18065;55.876;9.830;2023-11-21T11:52:46;21.46;52.20
31443;SHT31;18065;55.876;9.830;2023-11-21T11:55:17;21.45;52.22
31443;SHT31;18065;55.876;9.830;2023-11-21T11:57:48;21.46;52.22
31443;SHT31;18065;55.876;9.830;2023-11-21T12:00:18;21.43;52.25
31443;SHT31;18065;55.876;9.830;2023-11-21T12:02:50;21.38;52.31
31443;SHT31;18065;55.876;9.830;2023-11-21T12:05:20;21.42;52.23
31443;SHT31;18065;55.876;9.830;2023-11-21T12:07:53;21.41;52.25
31443;SHT31;18065;55.876;9.830;2023-11-21T12:10:24;21.45;52.31
31443;SHT31;18065;55.876;9.830;2023-11-21T12:12:54;21.42;52.33
31443;SHT31;18065;55.876;9.830;2023-11-21T12:15:24;21.38;52.33
31443;SHT31;18065;55.876;9.830;2023-11-21T12:17:54;21.39;52.30
31443;SHT31;18065;55.876;9.830;2023-11-21T12:20:25;21.41;52.30
31443;SHT31;18065;55.876;9.830;2023-11-21T12:22:57;21.41;52.28
31443;SHT31;18065;55.876;9.830;2023-11-21T12:25:28;21.39;52.31
31443;SHT31;18065;55.876;9.830;2023-11-21T12:27:58;21.41;52.31
31443;SHT31;18065;55.876;9.830;2023-11-21T12:30:30;21.41;52.27
31443;SHT31;18065;55.876;9.830;2023-11-21T12:33:02;21.39;52.31
31443;SHT31;18065;55.876;9.830;2023-11-21T12:35:33;21.38;52.31
31443;SHT31;18065;55.876;9.830;2023-11-21T12:38:05;21.41;52.28
31443;SHT31;18065;55.876;9.830;2023-11-21T12:40:34;21.39;52.27
31443;SHT31;18065;55.876;9.830;2023-11-21T12:43:03;21.38;52.30
31443;SHT31;18065;55.876;9.830;2023-11-21T12:45:32;21.38;52.32
31443;SHT31;18065;55.876;9.830;2023-11-21T12:48:05;21.41;52.30
31443;SHT31;18065;55.876;9.830;2023-11-21T12:50:38;21.36;52.32
31443;SHT31;18065;55.876;9.830;2023-11-21T12:53:11;21.35;52.28
31443;SHT31;18065;55.876;9.830;2023-11-21T12:55:43;21.35;52.30
31443;SHT31;18065;55.876;9.830;2023-11-21T12:58:15;21.32;52.31
31443;SHT31;18065;55.876;9.830;2023-11-21T13:00:48;21.36;52.27
31443;SHT31;18065;55.876;9.830;2023-11-21T13:03:19;21.35;52.28
31443;SHT31;18065;55.876;9.830;2023-11-21T13:05:51;21.35;52.32
31443;SHT31;18065;55.876;9.830;2023-11-21T13:08:25;21.34;52.30
31443;SHT31;18065;55.876;9.830;2023-11-21T13:10:57;21.35;52.31
31443;SHT31;18065;55.876;9.830;2023-11-21T13:13:28;21.32;52.36
31443;SHT31;18065;55.876;9.830;2023-11-21T13:15:58;21.32;52.34
31443;SHT31;18065;55.876;9.830;2023-11-21T13:18:30;21.34;52.33
31443;SHT31;18065;55.876;9.830;2023-11-21T13:21:01;21.32;52.34
31443;SHT31;18065;55.876;9.830;2023-11-21T13:23:38;21.32;52.28
31443;SHT31;18065;55.876;9.830;2023-11-21T13:26:07;21.34;52.33
31443;SHT31;18065;55.876;9.830;2023-11-21T13:28:37;21.32;52.33
31443;SHT31;18065;55.876;9.830;2023-11-21T13:31:07;21.32;52.32
31443;SHT31;18065;55.876;9.830;2023-11-21T13:33:47;21.31;52.31
31443;SHT31;18065;55.876;9.830;2023-11-21T13:36:21;21.34;52.34
31443;SHT31;18065;55.876;9.830;2023-11-21T13:38:52;21.29;52.31
31443;SHT31;18065;55.876;9.830;2023-11-21T13:41:22;21.29;52.36
31443;SHT31;18065;55.876;9.830;2023-11-21T13:43:56;21.31;52.36
31443;SHT31;18065;55.876;9.830;2023-11-21T13:46:34;21.29;52.35
31443;SHT31;18065;55.876;9.830;2023-11-21T13:49:03;21.28;52.38
31443;SHT31;18065;55.876;9.830;2023-11-21T13:51:35;21.28;52.35
31443;SHT31;18065;55.876;9.830;2023-11-21T13:54:11;21.25;52.36
31443;SHT31;18065;55.876;9.830;2023-11-21T13:56:41;21.27;52.38
31443;SHT31;18065;55.876;9.830;2023-11-21T13:59:10;21.28;52.38
31443;SHT31;18065;55.876;9.830;2023-11-21T14:01:45;21.25;52.38
31443;SHT31;18065;55.876;9.830;2023-11-21T14:04:20;21.28;52.36
31443;SHT31;18065;55.876;9.830;2023-11-21T14:07:01;21.27;52.39
31443;SHT31;18065;55.876;9.830;2023-11-21T14:09:47;21.23;52.39
31443;SHT31;18065;55.876;9.830;2023-11-21T14:12:16;21.27;52.42
31443;SHT31;18065;55.876;9.830;2023-11-21T14:14:44;21.25;52.43
31443;SHT31;18065;55.876;9.830;2023-11-21T14:17:14;21.23;52.42
31443;SHT31;18065;55.876;9.830;2023-11-21T14:19:43;21.23;52.39
31443;SHT31;18065;55.876;9.830;2023-11-21T14:22:12;21.23;52.42
31443;SHT31;18065;55.876;9.830;2023-11-21T14:24:42;21.25;52.40
31443;SHT31;18065;55.876;9.830;2023-11-21T14:27:15;21.22;52.43
31443;SHT31;18065;55.876;9.830;2023-11-21T14:29:43;21.25;52.40
31443;SHT31;18065;55.876;9.830;2023-11-21T14:32:13;21.22;52.41
31443;SHT31;18065;55.876;9.830;2023-11-21T14:34:42;21.21;52.42
31443;SHT31;18065;55.876;9.830;2023-11-21T14:37:12;21.21;52.42
31443;SHT31;18065;55.876;9.830;2023-11-21T14:39:42;21.21;52.44
31443;SHT31;18065;55.876;9.830;2023-11-21T14:42:16;21.21;52.42
31443;SHT31;18065;55.876;9.830;2023-11-21T14:44:50;21.19;52.43
31443;SHT31;18065;55.876;9.830;2023-11-21T14:47:20;21.18;52.47
31443;SHT31;18065;55.876;9.830;2023-11-21T14:49:52;21.18;52.51
31443;SHT31;18065;55.876;9.830;2023-11-21T14:52:25;21.19;52.50
31443;SHT31;18065;55.876;9.830;2023-11-21T14:54:59;21.19;52.49
31443;SHT31;18065;55.876;9.830;2023-11-21T14:57:43;21.15;52.47
31443;SHT31;18065;55.876;9.830;2023-11-21T15:00:16;21.15;52.47
31443;SHT31;18065;55.876;9.830;2023-11-21T15:03:04;21.16;52.49
31443;SHT31;18065;55.876;9.830;2023-11-21T15:05:34;21.14;52.47
31443;SHT31;18065;55.876;9.830;2023-11-21T15:08:01;21.15;52.49
31443;SHT31;18065;55.876;9.830;2023-11-21T15:10:45;21.16;52.53
31443;SHT31;18065;55.876;9.830;2023-11-21T15:13:16;21.15;52.54
31443;SHT31;18065;55.876;9.830;2023-11-21T15:15:45;21.14;52.51
31443;SHT31;18065;55.876;9.830;2023-11-21T15:18:11;21.14;52.54
31443;SHT31;18065;55.876;9.830;2023-11-21T15:20:40;21.11;52.51
31443;SHT31;18065;55.876;9.830;2023-11-21T15:23:09;21.12;52.46
31443;SHT31;18065;55.876;9.830;2023-11-21T15:25:38;21.12;52.47
31443;SHT31;18065;55.876;9.830;2023-11-21T15:28:07;21.12;52.49
31443;SHT31;18065;55.876;9.830;2023-11-21T15:30:39;21.12;52.49
31443;SHT31;18065;55.876;9.830;2023-11-21T15:33:09;21.11;52.44
31443;SHT31;18065;55.876;9.830;2023-11-21T15:35:38;21.12;52.49
31443;SHT31;18065;55.876;9.830;2023-11-21T15:38:07;21.11;52.49
31443;SHT31;18065;55.876;9.830;2023-11-21T15:40:36;21.09;52.50
31443;SHT31;18065;55.876;9.830;2023-11-21T15:43:05;21.09;52.54
31443;SHT31;18065;55.876;9.830;2023-11-21T15:45:34;21.09;52.55
31443;SHT31;18065;55.876;9.830;2023-11-21T15:48:05;21.07;52.51
31443;SHT31;18065;55.876;9.830;2023-11-21T15:50:35;21.05;52.55